createdAt,value
2018-05-18T00:00:10.151Z,1009.2
2018-05-18T00:01:12.194Z,1009.2
2018-05-18T00:02:14.232Z,1009.2
2018-05-18T00:03:16.272Z,1009.2
2018-05-18T00:04:18.299Z,1009.2
2018-05-18T00:05:20.337Z,1009.2
2018-05-18T00:06:22.379Z,1009.2
2018-05-18T00:07:24.410Z,1009.2
2018-05-18T00:08:26.743Z,1009.2
2018-05-18T00:09:29.064Z,1009.2
2018-05-18T00:10:31.486Z,1009.2
2018-05-18T00:11:33.810Z,1009.2
2018-05-18T00:12:35.838Z,1009.1
2018-05-18T00:13:38.182Z,1009.2
2018-05-18T00:14:40.527Z,1009.2
2018-05-18T00:15:42.934Z,1009.2
2018-05-18T00:16:44.972Z,1009.1
2018-05-18T00:17:47.296Z,1009.2
2018-05-18T00:18:49.639Z,1009.2
2018-05-18T00:19:51.665Z,1009.2
2018-05-18T00:20:53.694Z,1009.1
2018-05-18T00:21:56.023Z,1009.2
2018-05-18T00:22:58.333Z,1009.2
2018-05-18T00:24:00.359Z,1009.2
2018-05-18T00:25:03.091Z,1009.2
2018-05-18T00:26:05.110Z,1009.2
2018-05-18T00:27:07.157Z,1009.2
2018-05-18T00:28:09.479Z,1009.2
2018-05-18T00:29:11.517Z,1009.1
2018-05-18T00:30:13.554Z,1009.2
2018-05-18T00:31:15.592Z,1009.2
2018-05-18T00:32:17.620Z,1009.2
2018-05-18T00:33:19.655Z,1009.2
2018-05-18T00:34:21.688Z,1009.1
2018-05-18T00:35:23.723Z,1009.2
2018-05-18T00:36:26.150Z,1009.1
2018-05-18T00:37:28.181Z,1009.1
2018-05-18T00:38:30.216Z,1009.1
2018-05-18T00:39:32.255Z,1009.2
2018-05-18T00:40:34.282Z,1009.2
2018-05-18T00:41:36.629Z,1009.2
2018-05-18T00:42:38.665Z,1009.2
2018-05-18T00:43:40.699Z,1009.2
2018-05-18T00:44:43.116Z,1009.2
2018-05-18T00:45:45.142Z,1009.2
2018-05-18T00:46:47.183Z,1009.2
2018-05-18T00:47:49.211Z,1009.2
2018-05-18T00:48:51.261Z,1009.2
2018-05-18T00:49:53.592Z,1009.2
2018-05-18T00:50:55.623Z,1009.2
2018-05-18T00:51:57.945Z,1009.2
2018-05-18T00:52:59.979Z,1009.1
2018-05-18T00:54:02.020Z,1009.1
2018-05-18T00:55:04.333Z,1009.1
2018-05-18T00:56:06.641Z,1009.1
2018-05-18T00:57:08.966Z,1009.1
2018-05-18T00:58:11.003Z,1009.1
2018-05-18T00:59:14.004Z,1009.1
2018-05-18T01:00:16.327Z,1009.1
2018-05-18T01:01:18.352Z,1009.1
2018-05-18T01:02:20.388Z,1009.1
2018-05-18T01:03:22.415Z,1009.1
2018-05-18T01:04:24.499Z,1009.2
2018-05-18T01:05:27.195Z,1009.2
2018-05-18T01:06:29.227Z,1009.1
2018-05-18T01:07:31.264Z,1009.2
2018-05-18T01:08:33.293Z,1009.2
2018-05-18T01:09:35.327Z,1009.2
2018-05-18T01:10:37.381Z,1009.2
2018-05-18T01:11:39.401Z,1009.2
2018-05-18T01:12:41.428Z,1009.2
2018-05-18T01:13:43.467Z,1009.2
2018-05-18T01:14:45.881Z,1009.2
2018-05-18T01:15:47.961Z,1009.2
2018-05-18T01:16:50.353Z,1009.1
2018-05-18T01:17:52.390Z,1009.1
2018-05-18T01:18:54.416Z,1009.1
2018-05-18T01:19:56.465Z,1009.1
2018-05-18T01:20:58.495Z,1009.1
2018-05-18T01:22:00.527Z,1009.1
2018-05-18T01:23:02.557Z,1009.1
2018-05-18T01:24:04.589Z,1009.1
2018-05-18T01:25:06.623Z,1009.2
2018-05-18T01:26:09.045Z,1009.1
2018-05-18T01:27:11.352Z,1009.2
2018-05-18T01:28:13.403Z,1009.1
2018-05-18T01:29:15.427Z,1009.1
2018-05-18T01:30:17.466Z,1009.2
2018-05-18T01:31:20.564Z,1009.2
2018-05-18T01:32:22.595Z,1009.1
2018-05-18T01:33:24.616Z,1009.1
2018-05-18T01:34:27.040Z,1009.1
2018-05-18T01:35:29.072Z,1009.2
2018-05-18T01:36:31.112Z,1009.1
2018-05-18T01:37:33.134Z,1009.1
2018-05-18T01:38:35.170Z,1009.2
2018-05-18T01:39:37.198Z,1009.1
2018-05-18T01:40:39.231Z,1009.2
2018-05-18T01:41:41.264Z,1009.2
2018-05-18T01:42:43.301Z,1009.2
2018-05-18T01:43:45.340Z,1009.2
2018-05-18T01:44:47.678Z,1009.2
2018-05-18T01:45:49.704Z,1009.2
2018-05-18T01:46:51.739Z,1009.2
2018-05-18T01:47:53.774Z,1009.2
2018-05-18T01:48:56.501Z,1009.2
2018-05-18T01:49:58.837Z,1009.2
2018-05-18T01:51:00.874Z,1009.2
2018-05-18T01:52:02.899Z,1009.2
2018-05-18T01:53:04.943Z,1009.2
2018-05-18T01:54:06.975Z,1009.2
2018-05-18T01:55:09.001Z,1009.3
2018-05-18T01:56:11.047Z,1009.3
2018-05-18T01:57:13.076Z,1009.3
2018-05-18T01:58:15.111Z,1009.3
2018-05-18T01:59:17.141Z,1009.3
2018-05-18T02:00:19.184Z,1009.3
2018-05-18T02:01:21.612Z,1009.3
2018-05-18T02:02:23.629Z,1009.3
2018-05-18T02:03:25.668Z,1009.3
2018-05-18T02:04:27.707Z,1009.3
2018-05-18T02:05:29.748Z,1009.3
2018-05-18T02:06:32.159Z,1009.3
2018-05-18T02:07:34.192Z,1009.3
2018-05-18T02:08:36.226Z,1009.3
2018-05-18T02:09:38.254Z,1009.3
2018-05-18T02:10:40.282Z,1009.3
2018-05-18T02:11:42.342Z,1009.3
2018-05-18T02:12:44.653Z,1009.4
2018-05-18T02:13:46.678Z,1009.4
2018-05-18T02:14:48.714Z,1009.3
2018-05-18T02:15:51.045Z,1009.4
2018-05-18T02:16:53.074Z,1009.4
2018-05-18T02:17:55.107Z,1009.4
2018-05-18T02:18:57.153Z,1009.4
2018-05-18T02:19:59.187Z,1009.4
2018-05-18T02:21:01.208Z,1009.3
2018-05-18T02:22:03.637Z,1009.3
2018-05-18T02:23:05.958Z,1009.3
2018-05-18T02:24:07.992Z,1009.3
2018-05-18T02:25:10.027Z,1009.3
2018-05-18T02:26:12.053Z,1009.3
2018-05-18T02:27:14.083Z,1009.4
2018-05-18T02:28:16.439Z,1009.3
2018-05-18T02:29:18.466Z,1009.4
2018-05-18T02:30:20.777Z,1009.4
2018-05-18T02:31:23.197Z,1009.5
2018-05-18T02:32:25.514Z,1009.5
2018-05-18T02:33:27.556Z,1009.4
2018-05-18T02:34:29.965Z,1009.4
2018-05-18T02:35:32.011Z,1009.4
2018-05-18T02:36:34.046Z,1009.4
2018-05-18T02:37:36.748Z,1009.4
2018-05-18T02:38:39.174Z,1009.4
2018-05-18T02:39:41.511Z,1009.4
2018-05-18T02:40:43.553Z,1009.5
2018-05-18T02:41:45.580Z,1009.4
2018-05-18T02:42:47.609Z,1009.4
2018-05-18T02:43:49.652Z,1009.4
2018-05-18T02:44:51.671Z,1009.4
2018-05-18T02:45:54.393Z,1009.5
2018-05-18T02:46:57.046Z,1009.4
2018-05-18T02:47:59.380Z,1009.4
2018-05-18T02:49:02.083Z,1009.4
2018-05-18T02:50:04.133Z,1009.5
2018-05-18T02:51:06.803Z,1009.5
2018-05-18T02:52:08.797Z,1009.5
2018-05-18T02:53:11.108Z,1009.5
2018-05-18T02:54:13.555Z,1009.5
2018-05-18T02:55:16.461Z,1009.5
2018-05-18T02:56:18.490Z,1009.5
2018-05-18T02:57:20.525Z,1009.5
2018-05-18T02:58:22.564Z,1009.5
2018-05-18T02:59:24.877Z,1009.5
2018-05-18T03:00:27.189Z,1009.5
2018-05-18T03:01:29.227Z,1009.5
2018-05-18T03:02:31.543Z,1009.5
2018-05-18T03:03:33.866Z,1009.6
2018-05-18T03:04:36.286Z,1009.5
2018-05-18T03:05:38.318Z,1009.6
2018-05-18T03:06:40.631Z,1009.6
2018-05-18T03:07:42.673Z,1009.6
2018-05-18T03:08:45.083Z,1009.6
2018-05-18T03:09:47.507Z,1009.6
2018-05-18T03:10:49.539Z,1009.7
2018-05-18T03:11:51.562Z,1009.6
2018-05-18T03:12:53.606Z,1009.7
2018-05-18T03:13:55.924Z,1009.6
2018-05-18T03:14:58.316Z,1009.7
2018-05-18T03:16:00.657Z,1009.7
2018-05-18T03:17:02.682Z,1009.7
2018-05-18T03:18:04.713Z,1009.6
2018-05-18T03:19:06.753Z,1009.6
2018-05-18T03:20:08.780Z,1009.6
2018-05-18T03:21:10.821Z,1009.7
2018-05-18T03:22:12.860Z,1009.6
2018-05-18T03:23:14.888Z,1009.6
2018-05-18T03:24:16.927Z,1009.6
2018-05-18T03:25:18.950Z,1009.6
2018-05-18T03:26:20.995Z,1009.6
2018-05-18T03:27:23.023Z,1009.6
2018-05-18T03:28:25.056Z,1009.6
2018-05-18T03:29:27.366Z,1009.6
2018-05-18T03:30:29.412Z,1009.6
2018-05-18T03:31:31.833Z,1009.6
2018-05-18T03:32:34.251Z,1009.6
2018-05-18T03:33:36.279Z,1009.7
2018-05-18T03:34:38.329Z,1009.6
2018-05-18T03:35:40.353Z,1009.7
2018-05-18T03:36:42.380Z,1009.7
2018-05-18T03:37:44.411Z,1009.7
2018-05-18T03:38:46.446Z,1009.7
2018-05-18T03:39:48.484Z,1009.7
2018-05-18T03:40:50.523Z,1009.7
2018-05-18T03:41:52.932Z,1009.7
2018-05-18T03:42:54.968Z,1009.7
2018-05-18T03:43:57.379Z,1009.7
2018-05-18T03:44:59.410Z,1009.7
2018-05-18T03:46:01.447Z,1009.8
2018-05-18T03:47:03.482Z,1009.7
2018-05-18T03:48:05.521Z,1009.8
2018-05-18T03:49:07.835Z,1009.8
2018-05-18T03:50:09.873Z,1009.8
2018-05-18T03:51:11.907Z,1009.8
2018-05-18T03:52:13.933Z,1009.8
2018-05-18T03:53:15.980Z,1009.8
2018-05-18T03:54:18.008Z,1009.8
2018-05-18T03:55:20.422Z,1009.8
2018-05-18T03:56:22.847Z,1009.7
2018-05-18T03:57:24.879Z,1009.8
2018-05-18T03:58:27.210Z,1009.8
2018-05-18T03:59:29.237Z,1009.7
2018-05-18T04:00:31.271Z,1009.7
2018-05-18T04:01:33.297Z,1009.8
2018-05-18T04:02:35.324Z,1009.7
2018-05-18T04:03:37.352Z,1009.7
2018-05-18T04:04:40.048Z,1009.8
2018-05-18T04:05:42.097Z,1009.8
2018-05-18T04:06:44.135Z,1009.8
2018-05-18T04:07:46.167Z,1009.8
2018-05-18T04:08:49.262Z,1009.8
2018-05-18T04:09:51.295Z,1009.8
2018-05-18T04:10:53.327Z,1009.9
2018-05-18T04:11:55.364Z,1009.8
2018-05-18T04:12:57.410Z,1009.9
2018-05-18T04:13:59.443Z,1009.9
2018-05-18T04:15:01.474Z,1009.9
2018-05-18T04:16:03.508Z,1009.8
2018-05-18T04:17:05.555Z,1009.8
2018-05-18T04:18:07.582Z,1009.8
2018-05-18T04:19:10.009Z,1009.8
2018-05-18T04:20:12.334Z,1009.8
2018-05-18T04:21:14.365Z,1009.8
2018-05-18T04:22:16.392Z,1009.8
2018-05-18T04:23:18.434Z,1009.8
2018-05-18T04:24:20.458Z,1009.8
2018-05-18T04:25:22.491Z,1009.9
2018-05-18T04:26:24.529Z,1009.9
2018-05-18T04:27:26.838Z,1009.9
2018-05-18T04:28:28.866Z,1009.9
2018-05-18T04:29:30.896Z,1010
2018-05-18T04:30:32.937Z,1009.9
2018-05-18T04:31:35.247Z,1010
2018-05-18T04:32:37.270Z,1010
2018-05-18T04:33:39.323Z,1010
2018-05-18T04:34:41.349Z,1010
2018-05-18T04:35:43.375Z,1010
2018-05-18T04:36:45.413Z,1010
2018-05-18T04:37:47.454Z,1010
2018-05-18T04:38:50.140Z,1010
2018-05-18T04:39:52.177Z,1010
2018-05-18T04:40:54.211Z,1010
2018-05-18T04:41:56.244Z,1010
2018-05-18T04:42:58.281Z,1010
2018-05-18T04:44:00.317Z,1010
2018-05-18T04:45:02.631Z,1010
2018-05-18T04:46:04.963Z,1010
2018-05-18T04:47:06.983Z,1010
2018-05-18T04:48:09.022Z,1010
2018-05-18T04:49:11.049Z,1010.1
2018-05-18T04:50:13.082Z,1010.1
2018-05-18T04:51:15.112Z,1010.1
2018-05-18T04:52:17.140Z,1010.1
2018-05-18T04:53:19.170Z,1010.1
2018-05-18T04:54:21.490Z,1010.1
2018-05-18T04:55:23.510Z,1010.1
2018-05-18T04:56:25.540Z,1010.1
2018-05-18T04:57:27.584Z,1010.1
2018-05-18T04:58:29.623Z,1010.1
2018-05-18T04:59:31.938Z,1010.1
2018-05-18T05:00:34.256Z,1010.1
2018-05-18T05:01:36.962Z,1010.1
2018-05-18T05:02:39.000Z,1010
2018-05-18T05:03:41.083Z,1010.1
2018-05-18T05:04:43.053Z,1010.1
2018-05-18T05:05:45.106Z,1010.1
2018-05-18T05:06:47.131Z,1010.2
2018-05-18T05:07:49.167Z,1010.2
2018-05-18T05:08:51.205Z,1010.2
2018-05-18T05:09:53.232Z,1010.2
2018-05-18T05:10:55.267Z,1010.1
2018-05-18T05:11:57.590Z,1010.1
2018-05-18T05:12:59.612Z,1010.2
2018-05-18T05:14:01.943Z,1010.2
2018-05-18T05:15:04.252Z,1010.2
2018-05-18T05:16:06.284Z,1010.2
2018-05-18T05:17:08.596Z,1010.2
2018-05-18T05:18:10.640Z,1010.2
2018-05-18T05:19:12.660Z,1010.2
2018-05-18T05:20:15.081Z,1010.2
2018-05-18T05:21:17.399Z,1010.2
2018-05-18T05:22:19.435Z,1010.2
2018-05-18T05:23:21.462Z,1010.2
2018-05-18T05:24:23.778Z,1010.2
2018-05-18T05:25:25.810Z,1010.2
2018-05-18T05:26:27.847Z,1010.2
2018-05-18T05:27:30.161Z,1010.2
2018-05-18T05:28:32.208Z,1010.2
2018-05-18T05:29:34.242Z,1010.2
2018-05-18T05:30:36.703Z,1010.2
2018-05-18T05:31:38.593Z,1010.2
2018-05-18T05:32:40.630Z,1010.1
2018-05-18T05:33:42.671Z,1010.2
2018-05-18T05:34:44.703Z,1010.2
2018-05-18T05:35:46.730Z,1010.2
2018-05-18T05:36:49.115Z,1010.2
2018-05-18T05:37:51.115Z,1010.2
2018-05-18T05:38:53.149Z,1010.2
2018-05-18T05:39:55.570Z,1010.2
2018-05-18T05:40:57.605Z,1010.1
2018-05-18T05:41:59.639Z,1010.2
2018-05-18T05:43:01.672Z,1010.2
2018-05-18T05:44:03.999Z,1010.2
2018-05-18T05:45:06.323Z,1010.2
2018-05-18T05:46:08.359Z,1010.2
2018-05-18T05:47:10.668Z,1010.2
2018-05-18T05:48:12.699Z,1010.2
2018-05-18T05:49:14.736Z,1010.2
2018-05-18T05:50:17.121Z,1010.2
2018-05-18T05:51:19.078Z,1010.2
2018-05-18T05:52:21.404Z,1010.3
2018-05-18T05:53:23.738Z,1010.2
2018-05-18T05:54:25.757Z,1010.2
2018-05-18T05:55:28.082Z,1010.2
2018-05-18T05:56:30.122Z,1010.2
2018-05-18T05:57:32.153Z,1010.2
2018-05-18T05:58:34.299Z,1010.2
2018-05-18T05:59:36.722Z,1010.3
2018-05-18T06:00:38.753Z,1010.3
2018-05-18T06:01:40.792Z,1010.3
2018-05-18T06:02:43.481Z,1010.3
2018-05-18T06:03:45.525Z,1010.3
2018-05-18T06:04:47.552Z,1010.3
2018-05-18T06:05:49.578Z,1010.3
2018-05-18T06:06:51.612Z,1010.3
2018-05-18T06:07:53.646Z,1010.3
2018-05-18T06:08:55.985Z,1010.4
2018-05-18T06:09:58.290Z,1010.3
2018-05-18T06:11:00.328Z,1010.4
2018-05-18T06:12:02.969Z,1010.4
2018-05-18T06:13:05.274Z,1010.4
2018-05-18T06:14:07.604Z,1010.4
2018-05-18T06:15:09.648Z,1010.4
2018-05-18T06:16:11.965Z,1010.4
2018-05-18T06:17:13.990Z,1010.4
2018-05-18T06:18:16.018Z,1010.5
2018-05-18T06:19:18.038Z,1010.4
2018-05-18T06:20:20.089Z,1010.5
2018-05-18T06:21:22.113Z,1010.5
2018-05-18T06:22:24.149Z,1010.5
2018-05-18T06:23:26.182Z,1010.5
2018-05-18T06:24:28.215Z,1010.5
2018-05-18T06:25:30.535Z,1010.6
2018-05-18T06:26:33.152Z,1010.5
2018-05-18T06:27:35.198Z,1010.6
2018-05-18T06:28:37.649Z,1010.6
2018-05-18T06:29:39.940Z,1010.5
2018-05-18T06:30:41.977Z,1010.5
2018-05-18T06:31:44.008Z,1010.6
2018-05-18T06:32:46.431Z,1010.6
2018-05-18T06:33:48.467Z,1010.7
2018-05-18T06:34:50.583Z,1010.7
2018-05-18T06:35:53.178Z,1010.7
2018-05-18T06:36:55.492Z,1010.7
2018-05-18T06:37:57.809Z,1010.7
2018-05-18T06:38:59.847Z,1010.7
2018-05-18T06:40:01.884Z,1010.7
2018-05-18T06:41:04.303Z,1010.7
2018-05-18T06:42:06.347Z,1010.7
2018-05-18T06:43:08.380Z,1010.7
2018-05-18T06:44:10.409Z,1010.7
2018-05-18T06:45:13.133Z,1010.8
2018-05-18T06:46:15.171Z,1010.8
2018-05-18T06:47:17.213Z,1010.7
2018-05-18T06:48:19.243Z,1010.8
2018-05-18T06:49:21.274Z,1010.8
2018-05-18T06:50:23.658Z,1010.8
2018-05-18T06:51:25.632Z,1010.8
2018-05-18T06:52:27.690Z,1010.8
2018-05-18T06:53:29.687Z,1010.8
2018-05-18T06:54:31.720Z,1010.8
2018-05-18T06:55:34.042Z,1010.9
2018-05-18T06:56:36.464Z,1010.9
2018-05-18T06:57:38.782Z,1010.8
2018-05-18T06:58:41.564Z,1010.9
2018-05-18T06:59:44.235Z,1010.8
2018-05-18T07:00:46.277Z,1010.8
2018-05-18T07:01:48.305Z,1010.8
2018-05-18T07:02:50.350Z,1010.7
2018-05-18T07:03:52.389Z,1010.8
2018-05-18T07:04:54.416Z,1010.7
2018-05-18T07:05:56.447Z,1010.8
2018-05-18T07:06:58.497Z,1010.8
2018-05-18T07:08:00.531Z,1010.8
2018-05-18T07:09:02.568Z,1010.8
2018-05-18T07:10:04.603Z,1010.8
2018-05-18T07:11:06.641Z,1010.9
2018-05-18T07:12:08.678Z,1010.9
2018-05-18T07:13:11.001Z,1010.9
2018-05-18T07:14:13.324Z,1010.9
2018-05-18T07:15:15.371Z,1010.9
2018-05-18T07:16:17.409Z,1010.9
2018-05-18T07:17:19.434Z,1010.9
2018-05-18T07:18:21.472Z,1010.9
2018-05-18T07:19:23.507Z,1010.9
2018-05-18T07:20:25.579Z,1010.9
2018-05-18T07:21:27.585Z,1010.9
2018-05-18T07:22:29.622Z,1010.9
2018-05-18T07:23:31.742Z,1010.9
2018-05-18T07:24:33.677Z,1010.9
2018-05-18T07:25:36.100Z,1011
2018-05-18T07:26:38.141Z,1011
2018-05-18T07:27:40.175Z,1011
2018-05-18T07:28:42.198Z,1011
2018-05-18T07:29:44.549Z,1011
2018-05-18T07:30:46.870Z,1011
2018-05-18T07:31:48.901Z,1011
2018-05-18T07:32:50.940Z,1011
2018-05-18T07:33:52.966Z,1011
2018-05-18T07:34:55.006Z,1011
2018-05-18T07:35:57.040Z,1011
2018-05-18T07:36:59.069Z,1011.1
2018-05-18T07:38:01.111Z,1011
2018-05-18T07:39:03.142Z,1011
2018-05-18T07:40:05.182Z,1011
2018-05-18T07:41:07.222Z,1011.1
2018-05-18T07:42:09.251Z,1011
2018-05-18T07:43:11.311Z,1011
2018-05-18T07:44:13.352Z,1011
2018-05-18T07:45:15.405Z,1011.1
2018-05-18T07:46:17.735Z,1011
2018-05-18T07:47:19.772Z,1011
2018-05-18T07:48:21.818Z,1011
2018-05-18T07:49:24.241Z,1011.1
2018-05-18T07:50:26.308Z,1011
2018-05-18T07:51:28.341Z,1011
2018-05-18T07:52:30.683Z,1011
2018-05-18T07:53:32.778Z,1011.1
2018-05-18T07:54:35.199Z,1011
2018-05-18T07:55:37.234Z,1011
2018-05-18T07:56:39.263Z,1011
2018-05-18T07:57:41.314Z,1011
2018-05-18T07:58:43.629Z,1011.1
2018-05-18T07:59:45.659Z,1011.1
2018-05-18T08:00:47.700Z,1011
2018-05-18T08:01:50.118Z,1011
2018-05-18T08:02:52.163Z,1011
2018-05-18T08:03:54.193Z,1011.1
2018-05-18T08:04:56.233Z,1011
2018-05-18T08:05:58.266Z,1011
2018-05-18T08:07:00.314Z,1011
2018-05-18T08:08:02.648Z,1011.1
2018-05-18T08:09:04.675Z,1011.1
2018-05-18T08:10:06.726Z,1011.1
2018-05-18T08:11:08.761Z,1011.1
2018-05-18T08:12:10.800Z,1011.1
2018-05-18T08:13:12.831Z,1011.1
2018-05-18T08:14:14.861Z,1011.1
2018-05-18T08:15:17.194Z,1011.1
2018-05-18T08:16:19.217Z,1011.1
2018-05-18T08:17:21.251Z,1011.1
2018-05-18T08:18:23.291Z,1011.1
2018-05-18T08:19:25.633Z,1011.1
2018-05-18T08:20:27.654Z,1011.1
2018-05-18T08:21:29.761Z,1011.1
2018-05-18T08:22:32.074Z,1011.1
2018-05-18T08:23:34.417Z,1011.1
2018-05-18T08:24:36.438Z,1011.1
2018-05-18T08:25:38.481Z,1011.1
2018-05-18T08:26:40.517Z,1011.1
2018-05-18T08:27:42.851Z,1011.1
2018-05-18T08:28:44.871Z,1011.2
2018-05-18T08:29:46.907Z,1011.1
2018-05-18T08:30:48.937Z,1011.1
2018-05-18T08:31:50.982Z,1011.2
2018-05-18T08:32:53.011Z,1011.2
2018-05-18T08:33:55.049Z,1011.2
2018-05-18T08:34:57.088Z,1011.2
2018-05-18T08:35:59.129Z,1011.2
2018-05-18T08:37:01.463Z,1011.2
2018-05-18T08:38:03.824Z,1011.2
2018-05-18T08:39:05.862Z,1011.2
2018-05-18T08:40:07.892Z,1011.2
2018-05-18T08:41:10.219Z,1011.2
2018-05-18T08:42:12.260Z,1011.2
2018-05-18T08:43:14.323Z,1011.2
2018-05-18T08:44:16.365Z,1011.3
2018-05-18T08:45:18.772Z,1011.2
2018-05-18T08:46:21.199Z,1011.3
2018-05-18T08:47:23.263Z,1011.2
2018-05-18T08:48:25.290Z,1011.3
2018-05-18T08:49:27.324Z,1011.3
2018-05-18T08:50:29.399Z,1011.3
2018-05-18T08:51:31.399Z,1011.3
2018-05-18T08:52:33.437Z,1011.3
2018-05-18T08:53:35.471Z,1011.3
2018-05-18T08:54:37.519Z,1011.3
2018-05-18T08:55:39.557Z,1011.3
2018-05-18T08:56:41.594Z,1011.3
2018-05-18T08:57:43.914Z,1011.4
2018-05-18T08:58:45.957Z,1011.4
2018-05-18T08:59:47.994Z,1011.3
2018-05-18T09:00:50.034Z,1011.4
2018-05-18T09:01:52.068Z,1011.3
2018-05-18T09:02:54.114Z,1011.3
2018-05-18T09:03:56.152Z,1011.4
2018-05-18T09:04:58.185Z,1011.3
2018-05-18T09:06:00.233Z,1011.3
2018-05-18T09:07:02.264Z,1011.3
2018-05-18T09:08:04.294Z,1011.3
2018-05-18T09:09:06.347Z,1011.4
2018-05-18T09:10:08.377Z,1011.3
2018-05-18T09:11:10.419Z,1011.4
2018-05-18T09:12:12.449Z,1011.4
2018-05-18T09:13:14.497Z,1011.3
2018-05-18T09:14:16.541Z,1011.4
2018-05-18T09:15:18.569Z,1011.4
2018-05-18T09:16:20.619Z,1011.4
2018-05-18T09:17:22.966Z,1011.4
2018-05-18T09:18:24.997Z,1011.4
2018-05-18T09:19:27.038Z,1011.4
2018-05-18T09:20:29.072Z,1011.5
2018-05-18T09:21:31.104Z,1011.5
2018-05-18T09:22:33.149Z,1011.5
2018-05-18T09:23:35.184Z,1011.5
2018-05-18T09:24:37.222Z,1011.5
2018-05-18T09:25:39.262Z,1011.5
2018-05-18T09:26:41.590Z,1011.5
2018-05-18T09:27:43.622Z,1011.5
2018-05-18T09:28:45.675Z,1011.5
2018-05-18T09:29:47.698Z,1011.5
2018-05-18T09:30:49.746Z,1011.5
2018-05-18T09:31:51.781Z,1011.5
2018-05-18T09:32:53.830Z,1011.5
2018-05-18T09:33:55.869Z,1011.5
2018-05-18T09:34:57.897Z,1011.5
2018-05-18T09:35:59.937Z,1011.4
2018-05-18T09:37:01.983Z,1011.6
2018-05-18T09:38:04.018Z,1011.5
2018-05-18T09:39:06.061Z,1011.5
2018-05-18T09:40:08.087Z,1011.5
2018-05-18T09:41:10.136Z,1011.5
2018-05-18T09:42:12.166Z,1011.5
2018-05-18T09:43:14.210Z,1011.5
2018-05-18T09:44:16.248Z,1011.5
2018-05-18T09:45:18.457Z,1011.5
2018-05-18T09:46:22.666Z,1011.5
2018-05-18T09:47:32.328Z,1011.5
2018-05-18T09:48:47.301Z,1011.5
2018-05-18T09:49:57.319Z,1011.5
2018-05-18T09:51:03.637Z,1011.5
2018-05-18T09:52:13.824Z,1011.4
2018-05-18T09:53:23.994Z,1011.4
2018-05-18T09:54:35.157Z,1011.5
2018-05-18T09:55:44.270Z,1011.5
2018-05-18T09:56:46.323Z,1011.6
2018-05-18T09:57:48.355Z,1011.5
2018-05-18T09:58:50.404Z,1011.6
2018-05-18T09:59:52.719Z,1011.5
2018-05-18T10:00:55.059Z,1011.6
2018-05-18T10:01:57.471Z,1011.6
2018-05-18T10:02:59.515Z,1011.5
2018-05-18T10:04:01.594Z,1011.5
2018-05-18T10:05:03.628Z,1011.5
2018-05-18T10:06:05.672Z,1011.6
2018-05-18T10:07:08.005Z,1011.6
2018-05-18T10:08:10.037Z,1011.6
2018-05-18T10:09:12.078Z,1011.6
2018-05-18T10:10:14.107Z,1011.6
2018-05-18T10:11:16.211Z,1011.6
2018-05-18T10:12:18.575Z,1011.6
2018-05-18T10:13:20.614Z,1011.7
2018-05-18T10:14:22.943Z,1011.7
2018-05-18T10:15:25.275Z,1011.6
2018-05-18T10:16:27.320Z,1011.7
2018-05-18T10:17:29.357Z,1011.7
2018-05-18T10:18:31.787Z,1011.7
2018-05-18T10:19:33.743Z,1011.7
2018-05-18T10:20:35.839Z,1011.7
2018-05-18T10:21:38.168Z,1011.7
2018-05-18T10:22:40.208Z,1011.7
2018-05-18T10:23:42.256Z,1011.7
2018-05-18T10:24:44.594Z,1011.8
2018-05-18T10:25:46.631Z,1011.8
2018-05-18T10:26:48.849Z,1011.8
2018-05-18T10:27:51.127Z,1011.8
2018-05-18T10:28:53.155Z,1011.8
2018-05-18T10:29:55.245Z,1011.8
2018-05-18T10:30:57.297Z,1011.8
2018-05-18T10:31:59.344Z,1011.8
2018-05-18T10:33:01.951Z,1011.8
2018-05-18T10:34:04.671Z,1011.8
2018-05-18T10:35:06.710Z,1011.8
2018-05-18T10:36:09.070Z,1011.8
2018-05-18T10:37:11.101Z,1011.8
2018-05-18T10:38:13.147Z,1011.8
2018-05-18T10:39:15.185Z,1011.8
2018-05-18T10:40:17.216Z,1011.8
2018-05-18T10:41:19.258Z,1011.8
2018-05-18T10:42:21.294Z,1011.8
2018-05-18T10:43:23.350Z,1011.8
2018-05-18T10:44:26.032Z,1011.8
2018-05-18T10:45:28.090Z,1011.8
2018-05-18T10:46:30.454Z,1011.8
2018-05-18T10:47:33.346Z,1011.8
2018-05-18T10:48:36.663Z,1011.8
2018-05-18T10:49:38.707Z,1011.8
2018-05-18T10:50:40.762Z,1011.8
2018-05-18T10:51:42.822Z,1011.8
2018-05-18T10:52:44.891Z,1011.8
2018-05-18T10:53:46.982Z,1011.8
2018-05-18T10:54:49.143Z,1011.8
2018-05-18T10:55:51.471Z,1011.8
2018-05-18T10:56:53.507Z,1011.8
2018-05-18T10:57:55.845Z,1011.8
2018-05-18T10:58:57.888Z,1011.8
2018-05-18T11:00:00.247Z,1011.8
2018-05-18T11:01:02.287Z,1011.8
2018-05-18T11:02:04.325Z,1011.8
2018-05-18T11:03:06.375Z,1011.8
2018-05-18T11:04:08.419Z,1011.8
2018-05-18T11:05:10.455Z,1011.8
2018-05-18T11:06:12.500Z,1011.8
2018-05-18T11:07:14.542Z,1011.8
2018-05-18T11:08:16.590Z,1011.8
2018-05-18T11:09:18.624Z,1011.8
2018-05-18T11:10:20.676Z,1011.8
2018-05-18T11:11:22.720Z,1011.9
2018-05-18T11:12:24.749Z,1011.8
2018-05-18T11:13:27.179Z,1011.8
2018-05-18T11:14:29.222Z,1011.9
2018-05-18T11:15:31.258Z,1011.8
2018-05-18T11:16:33.291Z,1011.9
2018-05-18T11:17:35.346Z,1011.8
2018-05-18T11:18:37.388Z,1011.8
2018-05-18T11:19:39.420Z,1011.8
2018-05-18T11:20:41.467Z,1011.8
2018-05-18T11:21:43.507Z,1011.8
2018-05-18T11:22:45.547Z,1011.9
2018-05-18T11:23:47.585Z,1011.8
2018-05-18T11:24:49.615Z,1011.9
2018-05-18T11:25:51.667Z,1011.8
2018-05-18T11:26:53.696Z,1011.8
2018-05-18T11:27:56.054Z,1011.8
2018-05-18T11:28:58.102Z,1011.8
2018-05-18T11:30:00.430Z,1011.8
2018-05-18T11:31:02.469Z,1011.8
2018-05-18T11:32:04.510Z,1011.8
2018-05-18T11:33:06.636Z,1011.8
2018-05-18T11:34:08.598Z,1011.8
2018-05-18T11:35:10.625Z,1011.8
2018-05-18T11:36:13.360Z,1011.8
2018-05-18T11:37:15.403Z,1011.8
2018-05-18T11:38:17.433Z,1011.8
2018-05-18T11:39:20.061Z,1011.8
2018-05-18T11:40:22.103Z,1011.8
2018-05-18T11:41:24.141Z,1011.8
2018-05-18T11:42:26.183Z,1011.9
2018-05-18T11:43:28.222Z,1011.8
2018-05-18T11:44:30.270Z,1011.8
2018-05-18T11:45:32.305Z,1011.8
2018-05-18T11:46:34.346Z,1011.9
2018-05-18T11:47:36.391Z,1011.8
2018-05-18T11:48:39.309Z,1011.8
2018-05-18T11:49:41.349Z,1011.8
2018-05-18T11:50:43.783Z,1011.8
2018-05-18T11:51:45.813Z,1011.8
2018-05-18T11:52:47.859Z,1011.9
2018-05-18T11:53:49.892Z,1011.9
2018-05-18T11:54:51.932Z,1011.8
2018-05-18T11:55:53.975Z,1011.8
2018-05-18T11:56:56.017Z,1011.9
2018-05-18T11:57:58.067Z,1011.9
2018-05-18T11:59:00.108Z,1012
2018-05-18T12:00:02.148Z,1011.9
2018-05-18T12:01:04.186Z,1011.9
2018-05-18T12:02:06.226Z,1012
2018-05-18T12:03:08.276Z,1011.9
2018-05-18T12:04:10.312Z,1012
2018-05-18T12:05:12.359Z,1012
2018-05-18T12:06:14.402Z,1012
2018-05-18T12:07:16.429Z,1012
2018-05-18T12:08:18.527Z,1012
2018-05-18T12:09:20.517Z,1012
2018-05-18T12:10:22.869Z,1012
2018-05-18T12:11:24.908Z,1012
2018-05-18T12:12:26.951Z,1012
2018-05-18T12:13:28.986Z,1012
2018-05-18T12:14:31.030Z,1012
2018-05-18T12:15:33.366Z,1012
2018-05-18T12:16:35.417Z,1012
2018-05-18T12:17:37.479Z,1012
2018-05-18T12:18:39.809Z,1012
2018-05-18T12:19:41.862Z,1012
2018-05-18T12:20:43.899Z,1012
2018-05-18T12:21:45.937Z,1012
2018-05-18T12:22:48.286Z,1012
2018-05-18T12:23:50.326Z,1012
2018-05-18T12:24:52.372Z,1012
2018-05-18T12:25:54.402Z,1012
2018-05-18T12:26:56.439Z,1012.1
2018-05-18T12:27:58.476Z,1012
2018-05-18T12:29:00.510Z,1012
2018-05-18T12:30:02.550Z,1012.1
2018-05-18T12:31:05.363Z,1012
2018-05-18T12:32:07.406Z,1012.1
2018-05-18T12:33:09.444Z,1012
2018-05-18T12:34:11.487Z,1012.1
2018-05-18T12:35:13.910Z,1012.1
2018-05-18T12:36:15.949Z,1012.1
2018-05-18T12:37:18.378Z,1012.1
2018-05-18T12:38:20.729Z,1012
2018-05-18T12:39:23.045Z,1012.1
2018-05-18T12:40:25.076Z,1012.1
2018-05-18T12:41:27.121Z,1012.1
2018-05-18T12:42:29.441Z,1012.1
2018-05-18T12:43:31.486Z,1012.1
2018-05-18T12:44:33.548Z,1012.1
2018-05-18T12:45:35.565Z,1012.1
2018-05-18T12:46:37.611Z,1012.1
2018-05-18T12:47:39.640Z,1012.1
2018-05-18T12:48:41.674Z,1012.1
2018-05-18T12:49:43.726Z,1012.1
2018-05-18T12:50:45.758Z,1012.1
2018-05-18T12:51:48.484Z,1012.1
2018-05-18T12:52:50.521Z,1012.1
2018-05-18T12:53:52.561Z,1012.1
2018-05-18T12:54:54.954Z,1012.1
2018-05-18T12:55:56.986Z,1012.1
2018-05-18T12:56:59.033Z,1012.1
2018-05-18T12:58:01.464Z,1012.1
2018-05-18T12:59:03.775Z,1012.2
2018-05-18T13:00:05.820Z,1012.2
2018-05-18T13:01:08.145Z,1012.1